Time;durP1;ratioP1;P1;durP2;ratioP2;P2;SDS_P1;SDS_P2;PMS_P1;PMS_P2;Temp;Humidity;BMP_temperature;BMP_pressure;BME280_temperature;BME280_humidity;BME280_pressure;Samples;Min_cycle;Max_cycle;Signal;HPM_P1;HPM_P2
2022/01/25 00:15:29;;;;;;;69.68;46.05;;;;;;;5.80;69.22;103388.69;7394254;19;20026;-61
2022/01/25 00:26:18;;;;;;;77.10;46.08;;;;;;;5.76;69.57;103389.50;7392026;19;20030;-61
2022/01/25 00:28:50;;;;;;;71.78;44.80;;;;;;;5.77;69.17;103389.53;7391657;19;20421;-61
2022/01/25 00:31:24;;;;;;;79.63;48.10;;;;;;;5.79;68.93;103393.03;7394185;19;20018;-59
2022/01/25 00:33:55;;;;;;;76.90;48.83;;;;;;;5.72;68.59;103392.06;7391368;19;20010;-59
2022/01/25 00:36:26;;;;;;;72.68;46.25;;;;;;;5.72;68.89;103394.66;7391554;19;20010;-59
2022/01/25 00:38:57;;;;;;;73.53;46.20;;;;;;;5.75;69.08;103400.78;7390857;19;20018;-63
2022/01/25 00:41:26;;;;;;;69.05;44.83;;;;;;;5.68;68.50;103376.38;7393121;19;20025;-62
2022/01/25 00:43:59;;;;;;;72.00;46.13;;;;;;;5.64;69.11;103391.03;7392872;19;20006;-66
2022/01/25 00:46:28;;;;;;;72.10;46.10;;;;;;;5.67;68.77;103387.63;7390900;19;20019;-63
2022/01/25 00:49:02;;;;;;;67.93;44.80;;;;;;;5.65;68.47;103381.53;7392365;19;20022;-63
2022/01/25 00:54:26;;;;;;;68.90;44.13;;;;;;;5.59;68.85;103389.19;7390009;19;20014;-62
2022/01/25 00:56:56;;;;;;;72.63;45.28;;;;;;;5.62;68.71;103382.34;7390730;19;20115;-60
2022/01/25 00:59:26;;;;;;;66.93;44.03;;;;;;;5.67;68.75;103382.41;7392485;19;20015;-55
2022/01/25 01:01:57;;;;;;;70.22;45.95;;;;;;;5.68;68.56;103374.63;7392281;19;20014;-56
2022/01/25 01:04:31;;;;;;;70.30;45.42;;;;;;;5.61;68.00;103366.69;7392285;19;20018;-62
2022/01/25 01:07:01;;;;;;;71.28;45.55;;;;;;;5.55;68.35;103373.53;7390251;19;20026;-62
2022/01/25 01:09:33;;;;;;;71.20;44.60;;;;;;;5.59;68.13;103374.47;7392396;19;20014;-62
2022/01/25 01:12:07;;;;;;;71.63;46.10;;;;;;;5.55;68.45;103372.66;7391272;19;20014;-60
2022/01/25 01:14:53;;;;;;;69.78;44.42;;;;;;;5.60;68.14;103372.75;7391845;19;20025;-62
2022/01/25 01:28:47;;;;;;;70.65;44.53;;;;;;;5.65;68.38;103374.59;7389065;19;20118;-65
2022/01/25 01:31:17;;;;;;;68.72;44.50;;;;;;;5.55;68.25;103383.94;7391806;19;20452;-61
2022/01/25 01:34:21;;;;;;;68.63;44.08;;;;;;;5.64;68.17;103384.97;7390396;19;20017;-63
2022/01/25 01:37:17;;;;;;;69.38;44.00;;;;;;;5.69;67.71;103380.72;7390696;19;20090;-62
2022/01/25 01:42:53;;;;;;;67.22;42.60;;;;;;;5.63;66.68;103378.00;7389404;19;20011;-59
2022/01/25 01:45:34;;;;;;;67.90;43.85;;;;;;;5.61;66.46;103370.16;7392020;19;20070;-60
2022/01/25 01:48:07;;;;;;;74.32;45.78;;;;;;;5.62;66.83;103378.88;7390834;19;20022;-61
2022/01/25 01:50:38;;;;;;;69.63;43.90;;;;;;;5.51;67.28;103374.31;7391869;19;20083;-60
2022/01/25 01:53:10;;;;;;;71.95;44.15;;;;;;;5.62;67.24;103376.28;7388886;19;20015;-62
2022/01/25 01:55:39;;;;;;;70.40;44.60;;;;;;;5.59;66.96;103366.69;7391287;19;20016;-62
2022/01/25 01:58:08;;;;;;;67.85;41.83;;;;;;;5.58;66.50;103371.84;7390544;19;20274;-59
2022/01/25 02:00:40;;;;;;;66.50;43.42;;;;;;;5.56;66.44;103364.03;7395029;19;20536;-60
2022/01/25 02:03:09;;;;;;;69.97;44.93;;;;;;;5.60;66.49;103359.75;7398416;19;20102;-62
2022/01/25 02:05:39;;;;;;;69.03;43.03;;;;;;;5.59;66.62;103355.38;7398751;19;20767;-64
2022/01/25 02:08:11;;;;;;;71.18;44.33;;;;;;;5.60;66.77;103354.53;7398192;19;20026;-62
2022/01/25 02:10:40;;;;;;;71.23;44.63;;;;;;;5.49;66.71;103363.03;7397090;19;20014;-61
2022/01/25 02:13:11;;;;;;;67.60;43.00;;;;;;;5.49;66.63;103356.97;7390377;19;20025;-56
2022/01/25 02:15:45;;;;;;;65.38;42.78;;;;;;;5.48;66.41;103363.00;7394696;19;20038;-58
2022/01/25 02:23:41;;;;;;;74.95;46.63;;;;;;;5.38;67.22;103370.63;7395792;19;20015;-62
2022/01/25 02:26:12;;;;;;;73.18;45.67;;;;;;;5.43;67.33;103364.63;7395921;19;20023;-59
2022/01/25 02:28:43;;;;;;;69.43;44.90;;;;;;;5.51;66.77;103369.13;7395693;19;20049;-61
2022/01/25 02:31:15;;;;;;;70.97;45.17;;;;;;;5.55;66.45;103355.34;7389370;19;20073;-60
2022/01/25 02:33:44;;;;;;;69.50;43.70;;;;;;;5.48;65.72;103363.88;7390190;19;20114;-59
2022/01/25 02:36:24;;;;;;;73.25;44.72;;;;;;;5.45;66.58;103366.41;7388337;19;20014;-62
2022/01/25 02:38:53;;;;;;;72.00;45.00;;;;;;;5.50;66.24;103353.50;7389625;19;20074;-57
2022/01/25 02:41:22;;;;;;;73.25;44.45;;;;;;;5.50;66.09;103354.38;7388014;19;20324;-56
2022/01/25 02:43:52;;;;;;;71.07;42.85;;;;;;;5.48;65.74;103356.06;7390452;19;20464;-62
2022/01/25 02:48:29;;;;;;;75.72;46.13;;;;;;;5.45;66.09;103360.34;7387279;19;20014;-60
2022/01/25 02:49:09;;;;;;;73.60;45.40;;;;;;;5.47;66.25;103364.75;7389066;19;20030;-61
2022/01/25 02:51:42;;;;;;;75.93;46.28;;;;;;;5.49;66.27;103359.56;7389435;19;20464;-57
2022/01/25 02:54:12;;;;;;;77.35;48.03;;;;;;;5.50;66.39;103359.59;7388482;19;20018;-57
2022/01/25 02:56:42;;;;;;;78.20;46.70;;;;;;;5.52;66.65;103351.81;7387263;19;20011;-58
2022/01/25 02:59:14;;;;;;;79.22;47.22;;;;;;;5.54;66.51;103351.00;7388344;19;20682;-60
2022/01/25 03:01:43;;;;;;;80.18;48.92;;;;;;;5.51;66.50;103348.31;7388880;19;20015;-61
2022/01/25 03:04:13;;;;;;;79.70;47.13;;;;;;;5.32;66.43;103341.91;7388418;19;20028;-60
2022/01/25 03:06:45;;;;;;;82.20;49.25;;;;;;;5.40;67.52;103349.84;7386356;19;20074;-61
2022/01/25 03:09:14;;;;;;;86.90;49.55;;;;;;;5.41;68.00;103349.00;7388866;19;20504;-62
2022/01/25 03:11:46;;;;;;;87.72;50.95;;;;;;;5.43;68.29;103341.22;7388674;19;20014;-62
2022/01/25 03:14:17;;;;;;;83.07;48.95;;;;;;;5.50;67.34;103332.69;7387467;19;20022;-59
2022/01/25 03:16:52;;;;;;;90.25;51.53;;;;;;;5.53;67.07;103338.84;7385164;19;20078;-64
2022/01/25 03:19:44;;;;;;;88.38;51.28;;;;;;;5.51;66.87;103339.66;7385953;19;20011;-62
2022/01/25 03:22:29;;;;;;;89.68;50.88;;;;;;;5.45;66.76;103336.97;7385788;19;20014;-60
2022/01/25 03:24:58;;;;;;;93.05;51.47;;;;;;;5.42;67.14;103329.97;7389774;19;20074;-61
2022/01/25 03:27:27;;;;;;;88.05;51.53;;;;;;;5.48;67.03;103330.06;7392413;19;20014;-62
2022/01/25 03:29:56;;;;;;;88.10;51.20;;;;;;;5.49;66.58;103334.44;7395693;19;20018;-62
2022/01/25 03:32:25;;;;;;;84.40;49.42;;;;;;;5.37;66.55;103337.69;7397306;19;20006;-63
2022/01/25 03:34:54;;;;;;;91.75;50.90;;;;;;;5.43;66.93;103336.03;7394006;19;20025;-60
2022/01/25 03:37:25;;;;;;;89.82;51.92;;;;;;;5.33;67.27;103334.97;7391859;19;20015;-59
2022/01/25 03:39:54;;;;;;;90.65;50.70;;;;;;;5.34;66.86;103342.84;7396828;19;20007;-63
2022/01/25 03:42:24;;;;;;;90.07;50.58;;;;;;;5.30;66.84;103332.34;7395818;19;20142;-63
2022/01/25 03:44:53;;;;;;;88.38;50.20;;;;;;;5.35;66.97;103336.78;7391807;19;20085;-64
2022/01/25 03:47:31;;;;;;;87.72;49.83;;;;;;;5.37;66.90;103331.59;7392300;19;20057;-63
2022/01/25 03:49:57;;;;;;;93.10;51.70;;;;;;;5.33;67.18;103330.69;7395639;19;20476;-63
2022/01/25 03:52:33;;;;;;;90.32;51.40;;;;;;;5.33;67.10;103332.38;7395944;19;20014;-63
2022/01/25 03:55:02;;;;;;;87.07;49.38;;;;;;;5.31;66.64;103332.34;7393771;19;20089;-62
2022/01/25 03:57:30;;;;;;;90.32;50.75;;;;;;;5.28;66.79;103331.44;7394020;19;20023;-61
2022/01/25 04:00:00;;;;;;;98.00;52.47;;;;;;;5.26;66.55;103328.81;7395956;19;20014;-63
2022/01/25 04:02:32;;;;;;;89.22;50.28;;;;;;;5.20;66.72;103328.69;7393379;19;20517;-62
2022/01/25 04:05:01;;;;;;;90.22;50.47;;;;;;;5.21;66.78;103325.25;7396764;19;20035;-63
2022/01/25 04:07:44;;;;;;;90.47;50.38;;;;;;;5.25;66.89;103323.59;7392759;19;20070;-60
2022/01/25 04:10:17;;;;;;;88.72;49.05;;;;;;;5.22;67.44;103327.00;7396672;19;20014;-63
2022/01/25 04:12:46;;;;;;;91.18;50.35;;;;;;;5.26;67.69;103330.53;7395464;19;20350;-64
2022/01/25 04:15:15;;;;;;;90.07;49.65;;;;;;;5.32;68.01;103320.25;7391961;19;20031;-60
2022/01/25 04:17:49;;;;;;;85.63;48.65;;;;;;;5.36;67.25;103328.13;7392287;19;20090;-64
2022/01/25 04:20:23;;;;;;;92.30;50.53;;;;;;;5.36;67.04;103320.34;7395332;19;20019;-63
2022/01/25 04:25:36;;;;;;;93.88;50.95;;;;;;;5.39;67.41;103332.53;7394291;19;20018;-64
2022/01/25 04:28:05;;;;;;;93.55;51.83;;;;;;;5.44;67.28;103328.25;7393411;19;20021;-62
2022/01/25 04:30:34;;;;;;;88.72;50.17;;;;;;;5.40;67.70;103317.78;7394831;19;20524;-62
2022/01/25 04:33:06;;;;;;;90.05;49.55;;;;;;;5.42;67.67;103318.69;7394377;19;20022;-62
2022/01/25 04:35:57;;;;;;;93.22;51.30;;;;;;;5.41;67.23;103314.34;7393201;19;20011;-63
2022/01/25 04:49:22;;;;;;;90.20;50.38;;;;;;;5.21;67.69;103320.03;7394053;19;20130;-60
2022/01/25 04:52:00;;;;;;;87.68;49.47;;;;;;;5.29;67.73;103317.59;7393613;19;20007;-63
2022/01/25 04:54:51;;;;;;;87.25;49.03;;;;;;;5.36;67.19;103314.28;7391447;19;20014;-62
2022/01/25 04:57:32;;;;;;;88.85;49.70;;;;;;;5.33;67.17;103312.47;7390074;19;20360;-62
2022/01/25 05:00:04;;;;;;;92.32;50.67;;;;;;;5.27;67.29;103307.19;7392643;19;20066;-63
2022/01/25 05:02:44;;;;;;;;;;;;;;;5.26;67.10;103313.22;7393988;19;20078;-63
2022/01/25 05:05:18;;;;;;;89.15;49.63;;;;;;;5.31;66.85;103314.16;7392111;19;19918;-62
2022/01/25 05:07:54;;;;;;;97.10;52.42;;;;;;;5.31;66.60;103321.97;7389776;19;20023;-61
2022/01/25 05:10:25;;;;;;;89.05;49.08;;;;;;;5.32;66.79;103321.13;7390705;19;20018;-62
2022/01/25 05:13:10;;;;;;;91.72;49.60;;;;;;;5.18;66.51;103320.84;7391229;19;20017;-62
2022/01/25 05:18:36;;;;;;;89.10;49.88;;;;;;;5.20;66.76;103318.28;7389343;19;20102;-62
2022/01/25 05:23:47;;;;;;;92.13;50.35;;;;;;;5.10;67.05;103325.06;7393096;19;20021;-63
2022/01/25 05:26:18;;;;;;;90.75;50.17;;;;;;;5.19;66.73;103329.56;7391667;19;20019;-63
2022/01/25 05:28:47;;;;;;;83.55;46.38;;;;;;;5.20;66.92;103318.28;7392378;19;20530;-63
2022/01/25 05:31:16;;;;;;;91.38;49.65;;;;;;;5.20;66.64;103326.09;7392440;19;20021;-62
2022/01/25 05:33:45;;;;;;;90.93;51.70;;;;;;;5.18;66.73;103326.06;7392134;19;20016;-63
2022/01/25 05:36:15;;;;;;;93.63;51.42;;;;;;;5.15;67.00;103331.19;7391811;19;20022;-60
2022/01/25 05:38:46;;;;;;;99.07;52.38;;;;;;;5.13;67.44;103327.72;7394059;19;20014;-62
2022/01/25 05:41:17;;;;;;;90.07;50.20;;;;;;;5.12;66.81;103325.09;7392274;19;20487;-61
2022/01/25 05:46:35;;;;;;;91.47;49.25;;;;;;;5.19;66.99;103311.34;7389746;19;20480;-62
2022/01/25 05:49:03;;;;;;;91.63;49.58;;;;;;;5.19;66.65;103313.97;7391135;19;20125;-62
2022/01/25 05:51:32;;;;;;;90.15;50.50;;;;;;;5.24;66.55;103319.22;7391844;19;20014;-62
2022/01/25 05:54:01;;;;;;;86.13;48.67;;;;;;;5.26;66.59;103313.22;7389382;19;20006;-62
2022/01/25 05:56:32;;;;;;;89.75;50.95;;;;;;;5.25;66.70;103324.47;7389463;19;20015;-63
2022/01/25 05:59:01;;;;;;;88.65;49.17;;;;;;;5.23;66.07;103307.97;7389736;19;20007;-63
2022/01/25 06:01:31;;;;;;;91.28;50.75;;;;;;;5.22;66.13;103311.41;7391407;19;20002;-62
2022/01/25 06:04:00;;;;;;;90.82;49.88;;;;;;;5.21;65.97;103314.84;7391607;19;20595;-63
2022/01/25 06:06:30;;;;;;;91.57;51.47;;;;;;;5.20;65.93;103306.19;7389810;19;20031;-61
2022/01/25 06:08:59;;;;;;;89.60;50.38;;;;;;;5.23;66.23;103313.16;7390886;19;20003;-62
2022/01/25 06:11:28;;;;;;;89.40;50.22;;;;;;;5.25;66.40;103310.59;7389382;19;20014;-63
2022/01/25 06:13:59;;;;;;;91.68;50.15;;;;;;;5.27;66.94;103308.88;7389598;19;20014;-63
2022/01/25 06:16:29;;;;;;;94.75;51.42;;;;;;;5.21;66.68;103304.44;7389226;19;20018;-62
2022/01/25 06:18:58;;;;;;;90.82;51.15;;;;;;;5.22;66.75;103314.00;7391123;19;20002;-61
2022/01/25 06:21:27;;;;;;;91.53;51.67;;;;;;;5.23;66.92;103307.06;7391047;19;20132;-62
2022/01/25 06:23:56;;;;;;;97.30;52.63;;;;;;;5.10;66.51;103308.56;7392061;19;20010;-61
2022/01/25 06:26:25;;;;;;;89.40;50.17;;;;;;;5.14;66.85;103312.97;7388401;19;20417;-62
2022/01/25 06:28:54;;;;;;;90.93;50.78;;;;;;;5.20;67.08;103311.38;7389366;19;20024;-62
2022/01/25 06:31:26;;;;;;;91.50;49.63;;;;;;;5.21;67.28;103309.66;7388768;19;20013;-62
2022/01/25 06:33:54;;;;;;;96.87;52.80;;;;;;;5.18;67.14;103299.19;7390035;19;20013;-62
2022/01/25 06:36:23;;;;;;;93.38;51.80;;;;;;;5.15;66.79;103310.41;7388611;19;20523;-62
2022/01/25 06:38:52;;;;;;;91.97;51.58;;;;;;;5.13;67.44;103304.31;7389742;19;20473;-62
2022/01/25 06:41:21;;;;;;;90.50;50.63;;;;;;;5.16;67.50;103312.16;7389411;19;20019;-61
2022/01/25 06:43:49;;;;;;;93.10;50.80;;;;;;;5.07;67.75;103311.13;7388451;19;20018;-63
2022/01/25 06:46:18;;;;;;;95.90;53.05;;;;;;;5.03;68.01;103320.59;7389197;19;20011;-64
2022/01/25 06:48:50;;;;;;;92.47;51.63;;;;;;;5.01;68.13;103306.69;7390114;19;20348;-62
2022/01/25 06:51:19;;;;;;;91.00;49.78;;;;;;;5.00;68.61;103313.59;7391179;19;20021;-63
2022/01/25 06:53:48;;;;;;;98.60;53.95;;;;;;;5.11;68.32;103313.78;7391344;19;20027;-62
2022/01/25 06:56:16;;;;;;;93.18;51.03;;;;;;;5.01;68.31;103315.38;7389867;19;20015;-63
2022/01/25 06:58:45;;;;;;;90.72;50.78;;;;;;;5.12;68.23;103317.28;7391562;19;20492;-64
2022/01/25 07:01:17;;;;;;;96.57;52.00;;;;;;;5.07;68.52;103319.78;7391697;19;20493;-63
2022/01/25 07:03:46;;;;;;;93.03;51.47;;;;;;;5.08;68.57;103318.06;7391623;19;20143;-63
2022/01/25 07:06:18;;;;;;;92.57;50.70;;;;;;;5.13;67.88;103322.50;7389960;19;20010;-62
2022/01/25 07:08:47;;;;;;;94.80;51.30;;;;;;;5.07;67.49;103322.38;7390568;19;20015;-61
2022/01/25 07:11:16;;;;;;;91.15;50.47;;;;;;;5.05;67.58;103331.00;7392192;19;20011;-62
2022/01/25 07:13:46;;;;;;;94.70;51.30;;;;;;;5.04;67.47;103324.91;7392809;19;20026;-63
2022/01/25 07:16:15;;;;;;;94.68;51.53;;;;;;;5.05;67.48;103326.69;7389808;19;20038;-62
2022/01/25 07:18:44;;;;;;;98.78;52.38;;;;;;;4.88;67.22;103325.47;7391464;19;20007;-63
2022/01/25 07:21:13;;;;;;;95.32;51.67;;;;;;;4.94;67.37;103331.69;7391249;19;20022;-62
2022/01/25 07:23:44;;;;;;;98.63;52.00;;;;;;;4.98;67.75;103327.41;7392460;19;20015;-63
2022/01/25 07:26:13;;;;;;;99.78;52.20;;;;;;;5.03;67.68;103333.59;7391597;19;20018;-64
2022/01/25 07:28:42;;;;;;;94.30;50.83;;;;;;;5.02;67.54;103334.41;7393800;19;20019;-62
2022/01/25 07:31:10;;;;;;;94.38;50.72;;;;;;;5.01;67.82;103330.97;7394741;19;20014;-63
2022/01/25 07:33:39;;;;;;;93.28;51.40;;;;;;;5.07;67.29;103331.91;7390456;19;20513;-63
2022/01/25 07:36:08;;;;;;;95.18;52.13;;;;;;;5.09;67.51;103331.09;7387194;19;20017;-63
2022/01/25 07:38:37;;;;;;;89.85;49.72;;;;;;;5.09;67.45;103332.81;7389499;19;20018;-61
2022/01/25 07:41:08;;;;;;;93.28;51.22;;;;;;;5.06;67.86;103333.63;7393029;19;20030;-63
2022/01/25 07:43:37;;;;;;;95.13;51.70;;;;;;;5.07;67.66;103331.91;7390093;19;20025;-61
2022/01/25 07:46:06;;;;;;;95.47;50.72;;;;;;;5.05;67.50;103341.41;7388068;19;20041;-63
2022/01/25 07:48:35;;;;;;;95.85;51.75;;;;;;;5.06;68.17;103341.44;7386993;19;20400;-61
2022/01/25 07:51:04;;;;;;;96.05;52.03;;;;;;;4.97;67.37;103341.25;7389065;19;20010;-62
2022/01/25 07:53:33;;;;;;;95.47;51.25;;;;;;;5.03;67.68;103346.56;7389273;19;20484;-64
2022/01/25 07:56:02;;;;;;;97.70;52.60;;;;;;;4.99;67.87;103334.38;7386876;19;20014;-62
2022/01/25 07:58:33;;;;;;;94.65;51.97;;;;;;;4.97;68.00;103339.53;7389360;19;20010;-61
2022/01/25 08:01:02;;;;;;;99.03;52.35;;;;;;;4.97;68.58;103347.34;7390760;19;20015;-62
2022/01/25 08:03:31;;;;;;;99.25;53.20;;;;;;;5.03;68.52;103344.84;7387300;19;20006;-63
2022/01/25 08:06:00;;;;;;;100.68;53.28;;;;;;;4.97;68.70;103346.44;7391281;19;20403;-62
2022/01/25 08:08:29;;;;;;;95.13;51.47;;;;;;;5.03;68.57;103330.97;7389474;19;20014;-62
2022/01/25 08:10:58;;;;;;;97.35;52.42;;;;;;;5.05;68.13;103337.06;7389424;19;20334;-62
2022/01/25 08:13:26;;;;;;;94.70;51.30;;;;;;;4.99;67.92;103332.63;7395126;19;20129;-62
2022/01/25 08:15:58;;;;;;;96.13;51.78;;;;;;;5.04;68.10;103340.50;7393268;19;20022;-64
2022/01/25 08:18:27;;;;;;;93.72;50.97;;;;;;;5.06;68.42;103338.84;7396389;19;20018;-62
2022/01/25 08:20:56;;;;;;;96.47;51.25;;;;;;;5.07;68.53;103339.69;7395651;19;20016;-63
2022/01/25 08:23:24;;;;;;;90.05;50.15;;;;;;;5.09;68.29;103332.81;7395931;19;20026;-61
2022/01/25 08:25:53;;;;;;;93.65;50.15;;;;;;;5.10;68.14;103334.56;7392988;19;20017;-62
2022/01/25 08:28:23;;;;;;;92.72;51.20;;;;;;;5.05;67.98;103331.88;7393425;19;20006;-63
2022/01/25 08:30:52;;;;;;;102.03;53.15;;;;;;;5.02;68.39;103337.03;7396030;19;20017;-60
2022/01/25 08:33:23;;;;;;;96.13;51.63;;;;;;;4.92;68.50;103330.75;7396219;19;20387;-60
2022/01/25 08:35:52;;;;;;;93.68;51.38;;;;;;;4.97;68.25;103331.75;7394192;19;20333;-63
2022/01/25 08:38:21;;;;;;;94.18;50.78;;;;;;;4.97;68.13;103346.44;7392323;19;20367;-63
2022/01/25 08:40:50;;;;;;;92.72;50.95;;;;;;;4.98;68.23;103345.59;7395101;19;20022;-61
2022/01/25 08:43:19;;;;;;;94.32;50.60;;;;;;;5.04;68.33;103348.31;7396296;19;20120;-63
2022/01/25 08:45:48;;;;;;;95.38;50.60;;;;;;;4.96;68.20;103344.69;7394072;19;20010;-63
2022/01/25 08:48:17;;;;;;;96.45;50.97;;;;;;;4.93;68.09;103344.63;7394865;19;20030;-63
2022/01/25 08:50:48;;;;;;;92.20;50.03;;;;;;;4.94;67.88;103347.28;7395233;19;20021;-62
2022/01/25 08:53:17;;;;;;;94.45;50.05;;;;;;;5.00;67.85;103339.59;7395227;19;20452;-64
2022/01/25 08:55:46;;;;;;;92.40;49.80;;;;;;;5.00;67.85;103336.09;7395596;19;20023;-63
2022/01/25 08:58:15;;;;;;;99.30;53.10;;;;;;;4.92;67.96;103340.28;7395895;19;20011;-64
2022/01/25 09:00:44;;;;;;;93.97;49.25;;;;;;;4.85;67.86;103337.53;7395212;19;20475;-62
2022/01/25 09:03:14;;;;;;;96.45;51.60;;;;;;;4.84;67.87;103340.13;7394927;19;20014;-63
2022/01/25 09:05:43;;;;;;;95.28;51.70;;;;;;;4.81;68.26;103351.34;7394385;19;20016;-63
2022/01/25 09:08:20;;;;;;;97.38;51.67;;;;;;;4.78;68.04;103346.06;7394935;19;20325;-63
2022/01/25 09:10:50;;;;;;;87.65;47.63;;;;;;;4.82;67.70;103347.00;7395020;19;20070;-62
2022/01/25 09:13:19;;;;;;;93.13;50.90;;;;;;;4.75;68.28;103355.53;7395041;19;20013;-61
2022/01/25 09:15:48;;;;;;;97.10;52.63;;;;;;;4.73;69.02;103358.09;7392515;19;20025;-63
2022/01/25 09:18:17;;;;;;;94.25;51.30;;;;;;;4.83;68.40;103365.22;7394470;19;20022;-64
2022/01/25 09:20:46;;;;;;;96.32;51.13;;;;;;;4.87;68.14;103360.09;7394941;19;20014;-63
2022/01/25 09:23:19;;;;;;;94.57;50.80;;;;;;;4.84;68.18;103361.78;7392453;19;20019;-61
2022/01/25 09:25:49;;;;;;;96.68;50.22;;;;;;;4.91;68.51;103357.56;7395011;19;20018;-62
2022/01/25 09:28:19;;;;;;;97.80;53.03;;;;;;;4.97;68.40;103359.44;7394659;19;20026;-60
2022/01/25 09:30:48;;;;;;;95.70;51.47;;;;;;;4.88;68.84;103362.72;7395900;19;20011;-62
2022/01/25 09:33:18;;;;;;;99.07;52.80;;;;;;;4.84;68.56;103371.28;7395429;19;20018;-63
2022/01/25 09:35:47;;;;;;;97.13;50.42;;;;;;;4.72;68.11;103369.31;7394307;19;20018;-61
2022/01/25 09:38:18;;;;;;;93.20;49.75;;;;;;;4.79;68.19;103371.19;7395974;19;20018;-64
2022/01/25 09:40:48;;;;;;;94.40;49.58;;;;;;;4.80;68.42;103366.88;7394190;19;20014;-61
2022/01/25 09:43:18;;;;;;;95.00;51.13;;;;;;;4.84;68.63;103372.19;7394015;19;20017;-59
2022/01/25 09:45:46;;;;;;;93.45;49.00;;;;;;;4.91;68.68;103367.09;7400333;19;20038;-62
2022/01/25 09:48:17;;;;;;;98.78;53.28;;;;;;;4.86;68.79;103374.81;7396600;19;20014;-64
2022/01/25 09:50:46;;;;;;;103.00;55.17;;;;;;;4.76;69.55;103372.88;7394755;19;20007;-63
2022/01/25 09:53:17;;;;;;;98.38;51.25;;;;;;;4.81;69.01;103382.50;7395355;19;20014;-62
2022/01/25 09:55:48;;;;;;;96.32;49.22;;;;;;;4.89;69.17;103382.66;7393140;19;20022;-61
2022/01/25 09:58:17;;;;;;;89.50;48.03;;;;;;;4.96;68.83;103379.34;7394687;19;20017;-63
2022/01/25 10:00:49;;;;;;;93.75;49.42;;;;;;;4.99;68.79;103378.53;7394406;19;20018;-63
2022/01/25 10:03:26;;;;;;;93.57;50.17;;;;;;;4.98;68.87;103371.59;7394261;19;20093;-61
2022/01/25 10:05:58;;;;;;;91.55;48.85;;;;;;;5.00;68.76;103377.66;7392670;19;20015;-62
2022/01/25 10:08:32;;;;;;;92.45;49.55;;;;;;;5.02;68.63;103379.47;7394146;19;20054;-60
2022/01/25 10:11:03;;;;;;;95.38;49.30;;;;;;;5.00;68.83;103377.66;7394025;19;20380;-61
2022/01/25 10:13:34;;;;;;;91.20;48.85;;;;;;;5.03;68.70;103376.03;7393865;19;20015;-64
2022/01/25 10:16:06;;;;;;;92.60;50.03;;;;;;;5.04;68.77;103374.28;7392385;19;20404;-63
2022/01/25 10:18:44;;;;;;;93.88;50.03;;;;;;;4.96;68.31;103381.09;7392384;19;20020;-63
2022/01/25 10:21:16;;;;;;;101.30;52.65;;;;;;;4.84;68.66;103384.28;7392238;19;20033;-63
2022/01/25 10:24:09;;;;;;;91.97;49.10;;;;;;;4.83;68.95;103383.41;7393293;19;20006;-62
2022/01/25 10:26:41;;;;;;;94.82;48.92;;;;;;;4.92;69.24;103389.66;7389508;19;20025;-63
2022/01/25 10:29:12;;;;;;;96.47;49.23;;;;;;;4.97;69.05;103385.41;7392150;19;20452;-64
2022/01/25 10:31:44;;;;;;;93.40;49.72;;;;;;;5.01;68.77;103387.22;7391405;19;20490;-65
2022/01/25 10:34:15;;;;;;;98.18;50.75;;;;;;;4.97;68.28;103388.00;7388458;19;20011;-64
2022/01/25 10:36:46;;;;;;;92.80;49.05;;;;;;;4.91;68.37;103388.75;7389211;19;20479;-64
2022/01/25 10:39:24;;;;;;;99.38;52.78;;;;;;;4.85;68.49;103392.09;7390874;19;20078;-64
2022/01/25 10:41:53;;;;;;;94.15;48.80;;;;;;;4.89;68.67;103384.41;7390721;19;20010;-65
2022/01/25 10:44:22;;;;;;;93.43;49.45;;;;;;;4.88;68.98;103385.22;7391387;19;20360;-64
2022/01/25 10:46:52;;;;;;;91.60;49.13;;;;;;;4.92;68.64;103389.66;7388816;19;20021;-66
2022/01/25 10:49:21;;;;;;;96.68;50.08;;;;;;;4.97;68.79;103393.19;7391172;19;20122;-63
2022/01/25 10:51:51;;;;;;;98.13;51.55;;;;;;;4.81;69.19;103392.00;7391108;19;20015;-62
2022/01/25 10:54:25;;;;;;;92.32;49.03;;;;;;;4.74;69.15;103390.13;7389555;19;20043;-64
2022/01/25 10:56:57;;;;;;;94.68;49.17;;;;;;;4.83;69.20;103392.94;7388067;19;20025;-64
2022/01/25 10:59:29;;;;;;;95.57;48.95;;;;;;;4.85;69.12;103391.22;7390465;19;20341;-63
2022/01/25 11:02:00;;;;;;;94.22;48.08;;;;;;;4.82;68.81;103401.56;7389789;19;20095;-64
2022/01/25 11:04:34;;;;;;;92.03;47.47;;;;;;;4.82;68.52;103396.38;7390287;19;20036;-63
2022/01/25 11:07:07;;;;;;;94.72;49.42;;;;;;;4.81;69.01;103397.19;7388229;19;20436;-63
2022/01/25 11:09:43;;;;;;;97.22;51.08;;;;;;;4.84;68.85;103402.47;7389623;19;20127;-64
2022/01/25 11:12:15;;;;;;;96.80;50.15;;;;;;;4.83;69.04;103400.72;7389973;19;20049;-63
2022/01/25 11:14:54;;;;;;;94.70;49.10;;;;;;;4.93;69.02;103393.97;7391038;19;20392;-60
2022/01/25 11:17:24;;;;;;;95.93;48.95;;;;;;;4.93;68.99;103401.78;7387583;19;20492;-63
2022/01/25 11:19:53;;;;;;;89.90;48.95;;;;;;;4.95;69.26;103397.50;7387614;19;20015;-63
2022/01/25 11:22:23;;;;;;;97.18;50.53;;;;;;;4.96;69.18;103396.66;7387692;19;20041;-63
2022/01/25 11:24:56;;;;;;;94.15;48.80;;;;;;;4.99;69.08;103396.72;7388277;19;20019;-64
2022/01/25 11:27:28;;;;;;;91.68;48.53;;;;;;;5.04;69.30;103392.47;7388215;19;20041;-64
2022/01/25 11:30:00;;;;;;;94.53;48.73;;;;;;;5.04;69.21;103389.88;7390030;19;20021;-64
2022/01/25 11:32:34;;;;;;;95.17;49.43;;;;;;;5.08;69.22;103389.09;7392577;19;20532;-65
2022/01/25 11:35:06;;;;;;;95.00;49.28;;;;;;;5.14;69.09;103385.75;7391094;19;20021;-64
2022/01/25 11:37:35;;;;;;;;;;;;;;;5.07;68.58;103386.47;7388042;19;20118;-66
2022/01/25 11:40:23;;;;;;;97.25;50.15;;;;;;;4.89;68.61;103384.41;7389618;19;19914;-62
2022/01/25 11:42:54;;;;;;;92.82;48.50;;;;;;;4.89;68.87;103387.00;7390169;19;20460;-65
2022/01/25 11:45:25;;;;;;;91.25;47.55;;;;;;;4.94;68.92;103385.34;7390532;19;20086;-64
2022/01/25 11:47:56;;;;;;;95.65;48.53;;;;;;;4.95;69.05;103380.19;7397360;19;20085;-65
2022/01/25 11:50:30;;;;;;;98.07;50.38;;;;;;;4.74;68.68;103379.72;7397354;19;20018;-63
2022/01/25 11:53:06;;;;;;;89.55;46.95;;;;;;;4.75;68.77;103374.56;7396912;19;20011;-63
2022/01/25 11:55:39;;;;;;;92.35;49.05;;;;;;;4.77;69.01;103377.19;7393917;19;20071;-63
2022/01/25 11:58:10;;;;;;;94.82;49.30;;;;;;;4.82;69.00;103378.19;7396724;19;20015;-64
2022/01/25 12:00:44;;;;;;;90.13;46.70;;;;;;;4.79;68.67;103373.78;7396201;19;20007;-64
2022/01/25 12:03:26;;;;;;;90.15;47.33;;;;;;;4.84;69.20;103377.38;7396166;19;20033;-63
2022/01/25 12:06:02;;;;;;;91.63;48.15;;;;;;;4.90;68.90;103366.25;7395909;19;20100;-63
2022/01/25 12:08:39;;;;;;;99.32;51.55;;;;;;;4.82;69.37;103362.59;7397103;19;20019;-62
2022/01/25 12:11:33;;;;;;;90.10;47.22;;;;;;;4.87;69.49;103354.88;7397225;19;20025;-64
2022/01/25 12:14:23;;;;;;;89.68;46.70;;;;;;;4.96;68.66;103349.91;7397280;19;20419;-65
2022/01/25 12:16:55;;;;;;;91.70;47.33;;;;;;;4.98;69.13;103353.41;7395051;19;20018;-63
2022/01/25 12:19:36;;;;;;;94.35;50.42;;;;;;;4.98;68.98;103343.88;7400954;19;20025;-63
2022/01/25 12:22:09;;;;;;;89.93;48.67;;;;;;;4.97;69.01;103349.03;7403892;19;20070;-64
2022/01/25 12:24:51;;;;;;;;;;;;;;;5.08;68.92;103344.06;7405508;19;20382;-64
2022/01/25 12:27:39;;;;;;;87.45;46.40;;;;;;;5.06;68.94;103345.75;7398504;19;20367;-62
2022/01/25 12:30:12;;;;;;;85.93;45.47;;;;;;;5.10;68.68;103345.84;7402346;19;20070;-63
2022/01/25 12:32:51;;;;;;;91.25;48.10;;;;;;;5.00;69.10;103339.59;7400175;19;20011;-63
2022/01/25 12:35:21;;;;;;;90.63;48.20;;;;;;;4.96;68.86;103334.31;7397816;19;20025;-63
2022/01/25 12:38:02;;;;;;;86.78;46.25;;;;;;;5.01;68.60;103338.75;7394762;19;20044;-62
2022/01/25 12:40:53;;;;;;;86.50;45.65;;;;;;;5.00;68.74;103333.50;7396111;19;20074;-63
2022/01/25 12:43:33;;;;;;;84.18;44.78;;;;;;;5.00;68.44;103333.50;7398298;19;20018;-64
2022/01/25 12:46:05;;;;;;;83.68;44.47;;;;;;;5.02;68.42;103337.03;7398065;19;20122;-64